Time;durP1;ratioP1;P1;durP2;ratioP2;P2;SDS_P1;SDS_P2;PMS_P1;PMS_P2;Temp;Humidity;BMP_temperature;BMP_pressure;BME280_temperature;BME280_humidity;BME280_pressure;Samples;Min_cycle;Max_cycle;Signal;HPM_P1;HPM_P2
2022/03/24 00:00:14;;;;;;;;;;;;;;;;;;4204693;28;1175;-58
2022/03/24 00:02:51;;;;;;;;;;;;;;;;;;4204531;28;1909;-58
2022/03/24 00:05:12;;;;;;;;;;;;;;;;;;4204963;28;960;-57
2022/03/24 00:07:33;;;;;;;;;;;;;;;;;;4204114;28;1018;-58
2022/03/24 00:09:53;;;;;;;;;;;;;;;;;;4203089;28;1353;-58
2022/03/24 00:12:16;;;;;;;;;;;;;;;;;;4204300;28;1231;-58
2022/03/24 00:14:37;;;;;;;;;;;;;;;;;;4204552;28;1151;-59
2022/03/24 00:16:58;;;;;;;;;;;;;;;;;;4203641;28;1049;-58
2022/03/24 00:19:19;;;;;;;;;;;;;;;;;;4202803;28;1181;-58
2022/03/24 00:21:39;;;;;;;;;;;;;;;;;;4204152;28;967;-58
2022/03/24 00:24:00;;;;;;;;;;;;;;;;;;4204052;28;1987;-58
2022/03/24 00:26:21;;;;;;;;;;;;;;;;;;4204115;28;927;-58
2022/03/24 00:28:42;;;;;;;;;;;;;;;;;;4204351;28;1142;-58
2022/03/24 00:31:03;;;;;;;;;;;;;;;;;;4204052;28;989;-58
2022/03/24 00:33:24;;;;;;;;;;;;;;;;;;4203917;28;926;-58
2022/03/24 00:35:45;;;;;;;;;;;;;;;;;;4204392;28;993;-58
2022/03/24 00:38:05;;;;;;;;;;;;;;;;;;4203921;28;1048;-58
2022/03/24 00:40:26;;;;;;;;;;;;;;;;;;4203742;28;813;-58
2022/03/24 00:42:46;;;;;;;;;;;;;;;;;;4202861;28;826;-58
2022/03/24 00:45:09;;;;;;;;;;;;;;;;;;4203703;28;801;-58
2022/03/24 00:47:30;;;;;;;;;;;;;;;;;;4203826;28;927;-57
2022/03/24 00:49:50;;;;;;;;;;;;;;;;;;4204138;28;1110;-57
2022/03/24 00:52:12;;;;;;;;;;;;;;;;;;4203857;28;919;-58
2022/03/24 00:54:34;;;;;;;;;;;;;;;;;;4204150;28;943;-57
2022/03/24 00:56:54;;;;;;;;;;;;;;;;;;4217093;28;833;-57
2022/03/24 00:59:15;;;;;;;;;;;;;;;;;;4203882;28;814;-58
2022/03/24 01:01:39;;;;;;;;;;;;;;;;;;4202425;28;939;-58
2022/03/24 01:03:59;;;;;;;;;;;;;;;;;;4203716;28;1988;-58
2022/03/24 01:06:25;;;;;;;;;;;;;;;;;;4203541;28;1113;-58
2022/03/24 01:08:45;;;;;;;;;;;;;;;;;;4201813;28;1001;-59
2022/03/24 01:11:06;;;;;;;;;;;;;;;;;;4201821;28;1065;-58
2022/03/24 01:13:28;;;;;;;;;;;;;;;;;;4203711;28;900;-58
2022/03/24 01:15:49;;;;;;;;;;;;;;;;;;4203535;28;1180;-58
2022/03/24 01:18:14;;;;;;;;;;;;;;;;;;4202110;28;947;-58
2022/03/24 01:20:34;;;;;;;;;;;;;;;;;;4202273;28;798;-58
2022/03/24 01:22:55;;;;;;;;;;;;;;;;;;4203311;28;1012;-58
2022/03/24 01:25:16;;;;;;;;;;;;;;;;;;4203769;28;943;-58
2022/03/24 01:27:38;;;;;;;;;;;;;;;;;;4203416;28;1006;-58
2022/03/24 01:29:59;;;;;;;;;;;;;;;;;;4202815;28;853;-58
2022/03/24 01:32:19;;;;;;;;;;;;;;;;;;4201853;28;1106;-58
2022/03/24 01:34:40;;;;;;;;;;;;;;;;;;4203356;28;829;-58
2022/03/24 01:37:01;;;;;;;;;;;;;;;;;;4201725;28;950;-57
2022/03/24 01:39:23;;;;;;;;;;;;;;;;;;4201856;28;1087;-58
2022/03/24 01:41:44;;;;;;;;;;;;;;;;;;4203264;28;968;-58
2022/03/24 01:44:04;;;;;;;;;;;;;;;;;;4202967;28;1905;-58
2022/03/24 01:46:24;;;;;;;;;;;;;;;;;;4201386;28;1013;-58
2022/03/24 01:48:45;;;;;;;;;;;;;;;;;;4201779;28;1142;-58
2022/03/24 01:51:05;;;;;;;;;;;;;;;;;;4201761;28;902;-58
2022/03/24 01:53:26;;;;;;;;;;;;;;;;;;4201143;28;1127;-58
2022/03/24 01:55:47;;;;;;;;;;;;;;;;;;4202865;28;1228;-58
2022/03/24 01:58:08;;;;;;;;;;;;;;;;;;4200814;28;988;-58
2022/03/24 02:04:00;;;;;;;;;;;;;;;;;;4202003;28;1909;-58
2022/03/24 02:06:21;;;;;;;;;;;;;;;;;;4201189;28;1053;-58
2022/03/24 02:08:42;;;;;;;;;;;;;;;;;;4215837;28;1193;-58
2022/03/24 02:11:03;;;;;;;;;;;;;;;;;;4217968;28;1222;-58
2022/03/24 02:13:24;;;;;;;;;;;;;;;;;;4217711;28;1099;-58
2022/03/24 02:15:47;;;;;;;;;;;;;;;;;;4218229;28;1368;-58
2022/03/24 02:18:08;;;;;;;;;;;;;;;;;;4218816;28;819;-58
2022/03/24 02:20:33;;;;;;;;;;;;;;;;;;4219178;28;948;-58
2022/03/24 02:22:54;;;;;;;;;;;;;;;;;;4218191;28;1095;-58
2022/03/24 02:25:14;;;;;;;;;;;;;;;;;;4219383;28;1909;-57
2022/03/24 02:27:34;;;;;;;;;;;;;;;;;;4219131;28;1040;-58
2022/03/24 02:29:55;;;;;;;;;;;;;;;;;;4219397;28;1314;-58
2022/03/24 02:32:16;;;;;;;;;;;;;;;;;;4219004;28;921;-58
2022/03/24 02:34:40;;;;;;;;;;;;;;;;;;4219246;28;984;-58
2022/03/24 02:37:01;;;;;;;;;;;;;;;;;;4219639;28;810;-58
2022/03/24 02:39:21;;;;;;;;;;;;;;;;;;4219306;28;1232;-58
2022/03/24 02:41:45;;;;;;;;;;;;;;;;;;4222509;28;904;-58
2022/03/24 02:44:06;;;;;;;;;;;;;;;;;;4222339;28;1910;-58
2022/03/24 02:46:27;;;;;;;;;;;;;;;;;;4222394;28;919;-58
2022/03/24 02:48:48;;;;;;;;;;;;;;;;;;4221960;28;1087;-58
2022/03/24 02:51:09;;;;;;;;;;;;;;;;;;4221778;28;930;-58
2022/03/24 02:53:29;;;;;;;;;;;;;;;;;;4221976;28;1128;-58
2022/03/24 02:55:50;;;;;;;;;;;;;;;;;;4221761;28;949;-58
2022/03/24 02:58:11;;;;;;;;;;;;;;;;;;4221740;28;1048;-58
2022/03/24 03:00:32;;;;;;;;;;;;;;;;;;4222074;28;863;-58
2022/03/24 03:02:53;;;;;;;;;;;;;;;;;;4221986;28;985;-58
2022/03/24 03:05:13;;;;;;;;;;;;;;;;;;4221752;28;2049;-58
2022/03/24 03:07:35;;;;;;;;;;;;;;;;;;4221702;28;1166;-58
2022/03/24 03:09:55;;;;;;;;;;;;;;;;;;4221718;28;922;-58
2022/03/24 03:12:17;;;;;;;;;;;;;;;;;;4221526;28;1145;-58
2022/03/24 03:14:37;;;;;;;;;;;;;;;;;;4222039;28;1192;-58
2022/03/24 03:16:58;;;;;;;;;;;;;;;;;;4221774;28;927;-58
2022/03/24 03:19:19;;;;;;;;;;;;;;;;;;4221546;28;1346;-58
2022/03/24 03:21:40;;;;;;;;;;;;;;;;;;4221534;28;924;-58
2022/03/24 03:24:01;;;;;;;;;;;;;;;;;;4221441;28;1909;-58
2022/03/24 03:26:23;;;;;;;;;;;;;;;;;;4221670;28;982;-58
2022/03/24 03:28:44;;;;;;;;;;;;;;;;;;4221725;28;938;-58
2022/03/24 03:31:05;;;;;;;;;;;;;;;;;;4221524;28;1253;-58
2022/03/24 03:33:25;;;;;;;;;;;;;;;;;;4221707;28;1156;-58
2022/03/24 03:35:46;;;;;;;;;;;;;;;;;;4221329;28;2063;-58
2022/03/24 03:38:08;;;;;;;;;;;;;;;;;;4221501;28;930;-58
2022/03/24 03:40:28;;;;;;;;;;;;;;;;;;4221674;28;847;-58
2022/03/24 03:42:51;;;;;;;;;;;;;;;;;;4221436;28;906;-58
2022/03/24 03:45:11;;;;;;;;;;;;;;;;;;4221479;28;1981;-58
2022/03/24 03:47:31;;;;;;;;;;;;;;;;;;4221219;28;1036;-58
2022/03/24 03:49:52;;;;;;;;;;;;;;;;;;4221280;28;1318;-58
2022/03/24 03:52:13;;;;;;;;;;;;;;;;;;4220362;28;860;-58
2022/03/24 03:54:34;;;;;;;;;;;;;;;;;;4221230;28;1086;-58
2022/03/24 03:56:54;;;;;;;;;;;;;;;;;;4221103;28;988;-58
2022/03/24 03:59:15;;;;;;;;;;;;;;;;;;4220756;28;902;-58
2022/03/24 04:01:36;;;;;;;;;;;;;;;;;;4220889;28;1097;-58
2022/03/24 04:03:57;;;;;;;;;;;;;;;;;;4220929;28;1119;-58
2022/03/24 04:06:18;;;;;;;;;;;;;;;;;;4220710;28;962;-58
2022/03/24 04:08:38;;;;;;;;;;;;;;;;;;4221232;28;1252;-58
2022/03/24 04:11:00;;;;;;;;;;;;;;;;;;4220712;28;1143;-58
2022/03/24 04:13:20;;;;;;;;;;;;;;;;;;4220944;28;969;-58
2022/03/24 04:15:41;;;;;;;;;;;;;;;;;;4220990;28;1098;-58
2022/03/24 04:18:01;;;;;;;;;;;;;;;;;;4220851;28;1121;-58
2022/03/24 04:20:22;;;;;;;;;;;;;;;;;;4221454;28;1007;-58
2022/03/24 04:22:42;;;;;;;;;;;;;;;;;;4221122;28;954;-58
2022/03/24 04:25:02;;;;;;;;;;;;;;;;;;4220938;28;1980;-58
2022/03/24 04:27:23;;;;;;;;;;;;;;;;;;4221140;28;929;-57
2022/03/24 04:29:44;;;;;;;;;;;;;;;;;;4219643;28;1042;-58
2022/03/24 04:32:05;;;;;;;;;;;;;;;;;;4220385;28;984;-58
2022/03/24 04:34:25;;;;;;;;;;;;;;;;;;4220931;28;804;-58
2022/03/24 04:36:47;;;;;;;;;;;;;;;;;;4220690;28;1008;-58
2022/03/24 04:39:08;;;;;;;;;;;;;;;;;;4220718;28;934;-58
2022/03/24 04:41:29;;;;;;;;;;;;;;;;;;4220487;28;985;-58
2022/03/24 04:43:49;;;;;;;;;;;;;;;;;;4220070;28;1009;-58
2022/03/24 04:46:09;;;;;;;;;;;;;;;;;;4220533;28;1913;-58
2022/03/24 04:48:35;;;;;;;;;;;;;;;;;;4220842;28;1110;-58
2022/03/24 04:50:56;;;;;;;;;;;;;;;;;;4220167;28;1013;-58
2022/03/24 04:53:17;;;;;;;;;;;;;;;;;;4220590;28;940;-58
2022/03/24 04:55:38;;;;;;;;;;;;;;;;;;4220715;28;1404;-58
2022/03/24 04:57:59;;;;;;;;;;;;;;;;;;4220408;28;1087;-57
2022/03/24 05:00:19;;;;;;;;;;;;;;;;;;4220536;28;1007;-58
2022/03/24 05:02:41;;;;;;;;;;;;;;;;;;4219456;28;995;-58
2022/03/24 05:05:02;;;;;;;;;;;;;;;;;;4219740;28;1913;-58
2022/03/24 05:07:23;;;;;;;;;;;;;;;;;;4220366;28;933;-58
2022/03/24 05:09:45;;;;;;;;;;;;;;;;;;4220194;28;1215;-58
2022/03/24 05:12:06;;;;;;;;;;;;;;;;;;4219718;28;1206;-58
2022/03/24 05:14:26;;;;;;;;;;;;;;;;;;4220212;28;1319;-58
2022/03/24 05:16:47;;;;;;;;;;;;;;;;;;4220146;28;1372;-58
2022/03/24 05:19:07;;;;;;;;;;;;;;;;;;4219954;28;1395;-58
2022/03/24 05:21:28;;;;;;;;;;;;;;;;;;4220079;28;969;-57
2022/03/24 05:23:49;;;;;;;;;;;;;;;;;;4220295;28;921;-58
2022/03/24 05:26:09;;;;;;;;;;;;;;;;;;4219943;28;1996;-57
2022/03/24 05:28:30;;;;;;;;;;;;;;;;;;4220294;28;1002;-57
2022/03/24 05:30:51;;;;;;;;;;;;;;;;;;4220075;28;942;-58
2022/03/24 05:33:13;;;;;;;;;;;;;;;;;;4218005;28;1402;-57
2022/03/24 05:35:35;;;;;;;;;;;;;;;;;;4214713;28;1309;-58
2022/03/24 05:37:55;;;;;;;;;;;;;;;;;;4219912;28;1094;-58
2022/03/24 05:40:16;;;;;;;;;;;;;;;;;;4220020;28;1065;-57
2022/03/24 05:42:36;;;;;;;;;;;;;;;;;;4219853;28;909;-57
2022/03/24 05:44:57;;;;;;;;;;;;;;;;;;4219637;28;1975;-57
2022/03/24 05:47:18;;;;;;;;;;;;;;;;;;4219924;28;833;-57
2022/03/24 05:49:38;;;;;;;;;;;;;;;;;;4219536;28;1326;-58
2022/03/24 05:52:20;;;;;;;;;;;;;;;;;;4218797;28;940;-58
2022/03/24 05:54:40;;;;;;;;;;;;;;;;;;4219784;28;1221;-58
2022/03/24 05:57:01;;;;;;;;;;;;;;;;;;4219894;28;1009;-58
2022/03/24 05:59:22;;;;;;;;;;;;;;;;;;4219465;28;1202;-58
2022/03/24 06:01:43;;;;;;;;;;;;;;;;;;4219377;28;1546;-57
2022/03/24 06:04:03;;;;;;;;;;;;;;;;;;4219122;28;1384;-58
2022/03/24 06:06:25;;;;;;;;;;;;;;;;;;4219462;28;1990;-57
2022/03/24 06:08:52;;;;;;;;;;;;;;;;;;4220062;28;1006;-58
2022/03/24 06:11:13;;;;;;;;;;;;;;;;;;4217756;28;1310;-58
2022/03/24 06:13:36;;;;;;;;;;;;;;;;;;4217590;28;1314;-58
2022/03/24 06:16:01;;;;;;;;;;;;;;;;;;4220716;28;948;-58
2022/03/24 06:18:22;;;;;;;;;;;;;;;;;;4221149;28;974;-57
2022/03/24 06:20:43;;;;;;;;;;;;;;;;;;4221318;28;1508;-58
2022/03/24 06:23:04;;;;;;;;;;;;;;;;;;4221519;28;947;-59
2022/03/24 06:25:25;;;;;;;;;;;;;;;;;;4221346;28;1905;-58
2022/03/24 06:27:46;;;;;;;;;;;;;;;;;;4221117;28;1090;-62
2022/03/24 06:30:09;;;;;;;;;;;;;;;;;;4218068;28;1744;-62
2022/03/24 06:32:30;;;;;;;;;;;;;;;;;;4217175;28;997;-61
2022/03/24 06:34:52;;;;;;;;;;;;;;;;;;4217099;28;982;-62
2022/03/24 06:37:12;;;;;;;;;;;;;;;;;;4217576;28;1021;-62
2022/03/24 06:39:33;;;;;;;;;;;;;;;;;;4215405;28;2851;-62
2022/03/24 06:41:55;;;;;;;;;;;;;;;;;;4212425;28;1004;-61
2022/03/24 06:44:16;;;;;;;;;;;;;;;;;;4203108;28;823;-62
2022/03/24 06:46:38;;;;;;;;;;;;;;;;;;4206872;28;2060;-66
2022/03/24 06:49:00;;;;;;;;;;;;;;;;;;4202517;28;985;-64
2022/03/24 06:51:20;;;;;;;;;;;;;;;;;;4205714;28;962;-62
2022/03/24 06:53:41;;;;;;;;;;;;;;;;;;4205274;28;1000;-62
2022/03/24 06:56:01;;;;;;;;;;;;;;;;;;4203039;28;782;-61
2022/03/24 06:58:22;;;;;;;;;;;;;;;;;;4204419;28;921;-61
2022/03/24 07:00:43;;;;;;;;;;;;;;;;;;4208844;28;1647;-61
2022/03/24 07:03:04;;;;;;;;;;;;;;;;;;4220097;28;849;-64
2022/03/24 07:05:25;;;;;;;;;;;;;;;;;;4219923;28;1937;-62
2022/03/24 07:07:46;;;;;;;;;;;;;;;;;;4221242;28;1188;-63
2022/03/24 07:10:07;;;;;;;;;;;;;;;;;;4222456;28;816;-63
2022/03/24 07:12:27;;;;;;;;;;;;;;;;;;4221345;28;1186;-63
2022/03/24 07:14:48;;;;;;;;;;;;;;;;;;4221377;28;1189;-63
2022/03/24 07:17:10;;;;;;;;;;;;;;;;;;4221929;28;1985;-63
2022/03/24 07:19:30;;;;;;;;;;;;;;;;;;4221570;28;1906;-63
2022/03/24 07:21:51;;;;;;;;;;;;;;;;;;4219247;28;1259;-63
2022/03/24 07:24:12;;;;;;;;;;;;;;;;;;4226060;28;1583;-62
2022/03/24 07:26:32;;;;;;;;;;;;;;;;;;4220714;28;1975;-63
2022/03/24 07:28:53;;;;;;;;;;;;;;;;;;4221915;28;1300;-64
2022/03/24 07:31:14;;;;;;;;;;;;;;;;;;4222056;28;865;-63
2022/03/24 07:33:35;;;;;;;;;;;;;;;;;;4220981;28;1940;-63
2022/03/24 07:35:55;;;;;;;;;;;;;;;;;;4212291;28;1510;-63
2022/03/24 07:38:16;;;;;;;;;;;;;;;;;;4221866;28;902;-63
2022/03/24 07:40:36;;;;;;;;;;;;;;;;;;4221827;28;1388;-63
2022/03/24 07:42:58;;;;;;;;;;;;;;;;;;4221684;28;880;-63
2022/03/24 07:45:18;;;;;;;;;;;;;;;;;;4221800;28;809;-63
2022/03/24 07:47:39;;;;;;;;;;;;;;;;;;4221523;28;918;-63
2022/03/24 07:50:00;;;;;;;;;;;;;;;;;;4221304;28;1164;-63
2022/03/24 07:52:20;;;;;;;;;;;;;;;;;;4220113;28;1436;-63
2022/03/24 07:54:42;;;;;;;;;;;;;;;;;;4221691;28;1239;-63
2022/03/24 07:57:02;;;;;;;;;;;;;;;;;;4221656;28;999;-62
2022/03/24 07:59:23;;;;;;;;;;;;;;;;;;4221435;28;1128;-63
2022/03/24 08:01:43;;;;;;;;;;;;;;;;;;4221416;28;952;-63
2022/03/24 08:04:05;;;;;;;;;;;;;;;;;;4221335;28;1315;-63
2022/03/24 08:06:25;;;;;;;;;;;;;;;;;;4219746;28;1984;-63
2022/03/24 08:08:45;;;;;;;;;;;;;;;;;;4204334;28;1104;-63
2022/03/24 08:11:06;;;;;;;;;;;;;;;;;;4204417;28;1312;-63
2022/03/24 08:13:27;;;;;;;;;;;;;;;;;;4204616;28;1002;-63
2022/03/24 08:15:47;;;;;;;;;;;;;;;;;;4204318;28;922;-63
2022/03/24 08:18:08;;;;;;;;;;;;;;;;;;4204450;28;940;-63
2022/03/24 08:20:29;;;;;;;;;;;;;;;;;;4220699;28;1009;-64
2022/03/24 08:22:49;;;;;;;;;;;;;;;;;;4221225;28;856;-63
2022/03/24 08:25:10;;;;;;;;;;;;;;;;;;4220951;28;965;-63
2022/03/24 08:27:30;;;;;;;;;;;;;;;;;;4220633;28;1909;-62
2022/03/24 08:29:51;;;;;;;;;;;;;;;;;;4220406;28;1483;-63
2022/03/24 08:32:12;;;;;;;;;;;;;;;;;;4219364;28;1033;-63
2022/03/24 08:34:32;;;;;;;;;;;;;;;;;;4219796;28;1028;-63
2022/03/24 08:36:53;;;;;;;;;;;;;;;;;;4220160;28;984;-63
2022/03/24 08:39:14;;;;;;;;;;;;;;;;;;4219690;28;942;-63
2022/03/24 08:41:35;;;;;;;;;;;;;;;;;;4219505;28;950;-63
2022/03/24 08:43:55;;;;;;;;;;;;;;;;;;4219012;28;1019;-63
2022/03/24 08:46:15;;;;;;;;;;;;;;;;;;4220200;28;1991;-63
2022/03/24 08:48:36;;;;;;;;;;;;;;;;;;4220782;28;1035;-63
2022/03/24 08:50:57;;;;;;;;;;;;;;;;;;4220533;28;1008;-63
2022/03/24 08:53:17;;;;;;;;;;;;;;;;;;4221049;28;813;-63
2022/03/24 08:55:38;;;;;;;;;;;;;;;;;;4220098;28;965;-63
2022/03/24 08:57:59;;;;;;;;;;;;;;;;;;4220828;28;862;-64
2022/03/24 09:00:19;;;;;;;;;;;;;;;;;;4219766;28;867;-63
2022/03/24 09:02:40;;;;;;;;;;;;;;;;;;4220354;28;1127;-63
2022/03/24 09:05:01;;;;;;;;;;;;;;;;;;4220387;28;1126;-63
2022/03/24 09:07:21;;;;;;;;;;;;;;;;;;4220381;28;1906;-63
2022/03/24 09:09:42;;;;;;;;;;;;;;;;;;4219008;28;966;-63
2022/03/24 09:12:02;;;;;;;;;;;;;;;;;;4220360;28;1160;-63
2022/03/24 09:14:23;;;;;;;;;;;;;;;;;;4219733;28;1040;-63
2022/03/24 09:16:45;;;;;;;;;;;;;;;;;;4219966;28;1116;-63
2022/03/24 09:19:06;;;;;;;;;;;;;;;;;;4219065;28;1067;-63
2022/03/24 09:21:27;;;;;;;;;;;;;;;;;;4218400;28;942;-63
2022/03/24 09:23:48;;;;;;;;;;;;;;;;;;4220435;28;1025;-63
2022/03/24 09:26:08;;;;;;;;;;;;;;;;;;4220259;28;923;-63
2022/03/24 09:28:28;;;;;;;;;;;;;;;;;;4221014;28;1742;-64
2022/03/24 09:30:50;;;;;;;;;;;;;;;;;;4220149;28;1325;-63
2022/03/24 09:33:10;;;;;;;;;;;;;;;;;;4219938;28;1175;-63
2022/03/24 09:35:31;;;;;;;;;;;;;;;;;;4203459;28;873;-63
2022/03/24 09:37:52;;;;;;;;;;;;;;;;;;4203569;28;942;-63
2022/03/24 09:40:12;;;;;;;;;;;;;;;;;;4196865;28;1045;-63
2022/03/24 09:42:33;;;;;;;;;;;;;;;;;;4200948;28;931;-62
2022/03/24 09:44:53;;;;;;;;;;;;;;;;;;4200955;28;1051;-63
2022/03/24 09:47:14;;;;;;;;;;;;;;;;;;4200246;28;1906;-65
2022/03/24 09:52:52;;;;;;;;;;;;;;;;;;4218231;28;950;-65
2022/03/24 09:55:12;;;;;;;;;;;;;;;;;;4218156;28;825;-65
2022/03/24 09:57:34;;;;;;;;;;;;;;;;;;4217657;28;1102;-62
2022/03/24 09:59:54;;;;;;;;;;;;;;;;;;4218111;28;1252;-61
2022/03/24 10:02:15;;;;;;;;;;;;;;;;;;4218542;28;1172;-61
2022/03/24 10:04:36;;;;;;;;;;;;;;;;;;4218111;28;1539;-62
2022/03/24 10:06:57;;;;;;;;;;;;;;;;;;4217554;28;1976;-61
2022/03/24 10:09:17;;;;;;;;;;;;;;;;;;4217722;28;1254;-62
2022/03/24 10:11:38;;;;;;;;;;;;;;;;;;4217947;28;1312;-61
2022/03/24 10:13:59;;;;;;;;;;;;;;;;;;4217626;28;1008;-61
2022/03/24 10:16:20;;;;;;;;;;;;;;;;;;4218652;28;832;-62
2022/03/24 10:18:40;;;;;;;;;;;;;;;;;;4218434;28;1473;-61
2022/03/24 10:21:03;;;;;;;;;;;;;;;;;;4218370;28;947;-62
2022/03/24 10:23:23;;;;;;;;;;;;;;;;;;4217779;28;1400;-61
2022/03/24 10:25:46;;;;;;;;;;;;;;;;;;4217701;28;1201;-62
2022/03/24 10:28:08;;;;;;;;;;;;;;;;;;4218152;28;1906;-64
2022/03/24 10:30:28;;;;;;;;;;;;;;;;;;4201426;28;1018;-65
2022/03/24 10:32:49;;;;;;;;;;;;;;;;;;4201256;28;959;-64
2022/03/24 10:35:10;;;;;;;;;;;;;;;;;;4216377;28;1259;-64
2022/03/24 10:37:30;;;;;;;;;;;;;;;;;;4217233;28;1453;-64
2022/03/24 10:39:51;;;;;;;;;;;;;;;;;;4218137;28;1197;-64
2022/03/24 10:42:12;;;;;;;;;;;;;;;;;;4218114;28;1009;-64
2022/03/24 10:44:32;;;;;;;;;;;;;;;;;;4218016;28;955;-64
2022/03/24 10:46:53;;;;;;;;;;;;;;;;;;4217601;28;1918;-65
2022/03/24 10:49:14;;;;;;;;;;;;;;;;;;4218244;28;1058;-64
2022/03/24 10:51:35;;;;;;;;;;;;;;;;;;4217490;28;1016;-65
2022/03/24 10:53:55;;;;;;;;;;;;;;;;;;4217757;28;784;-65
2022/03/24 10:56:16;;;;;;;;;;;;;;;;;;4217745;28;1097;-64
2022/03/24 10:58:38;;;;;;;;;;;;;;;;;;4217843;28;911;-65
2022/03/24 11:00:59;;;;;;;;;;;;;;;;;;4218282;28;966;-65
2022/03/24 11:03:19;;;;;;;;;;;;;;;;;;4220402;28;1199;-64
2022/03/24 11:05:40;;;;;;;;;;;;;;;;;;4220150;28;970;-63
2022/03/24 11:08:00;;;;;;;;;;;;;;;;;;4220090;28;1913;-64
2022/03/24 11:10:21;;;;;;;;;;;;;;;;;;4220382;28;1202;-63
2022/03/24 11:12:42;;;;;;;;;;;;;;;;;;4218739;28;1293;-64
2022/03/24 11:15:02;;;;;;;;;;;;;;;;;;4220437;28;977;-64
2022/03/24 11:17:24;;;;;;;;;;;;;;;;;;4220232;28;1702;-64
2022/03/24 11:19:45;;;;;;;;;;;;;;;;;;4220442;28;1152;-63
2022/03/24 11:22:05;;;;;;;;;;;;;;;;;;4220336;28;1111;-64
2022/03/24 11:24:26;;;;;;;;;;;;;;;;;;4220381;28;902;-62
2022/03/24 11:26:47;;;;;;;;;;;;;;;;;;4220397;28;1172;-63
2022/03/24 11:29:07;;;;;;;;;;;;;;;;;;4220338;28;1415;-64
2022/03/24 11:31:28;;;;;;;;;;;;;;;;;;4220019;28;1546;-63
2022/03/24 11:33:49;;;;;;;;;;;;;;;;;;4218916;28;1217;-63
2022/03/24 11:36:09;;;;;;;;;;;;;;;;;;4203774;28;826;-63
2022/03/24 11:38:30;;;;;;;;;;;;;;;;;;4203571;28;836;-63
2022/03/24 11:40:50;;;;;;;;;;;;;;;;;;4203052;28;1086;-62
2022/03/24 11:43:11;;;;;;;;;;;;;;;;;;4205211;28;1646;-63
2022/03/24 11:45:32;;;;;;;;;;;;;;;;;;4220505;28;837;-63
2022/03/24 11:47:53;;;;;;;;;;;;;;;;;;4220188;28;1910;-62
2022/03/24 11:50:17;;;;;;;;;;;;;;;;;;4219951;28;1266;-64
2022/03/24 11:52:38;;;;;;;;;;;;;;;;;;4219442;28;1242;-63
2022/03/24 11:54:59;;;;;;;;;;;;;;;;;;4219636;28;1434;-63
2022/03/24 11:57:19;;;;;;;;;;;;;;;;;;4220314;28;821;-62
2022/03/24 11:59:40;;;;;;;;;;;;;;;;;;4219341;28;1341;-60
2022/03/24 12:02:01;;;;;;;;;;;;;;;;;;4217347;28;1209;-58
2022/03/24 12:04:21;;;;;;;;;;;;;;;;;;4219174;28;1664;-58
2022/03/24 12:06:41;;;;;;;;;;;;;;;;;;4217909;28;1671;-58
2022/03/24 12:09:02;;;;;;;;;;;;;;;;;;4218785;28;1991;-58
2022/03/24 12:11:23;;;;;;;;;;;;;;;;;;4212875;28;1358;-57
2022/03/24 12:13:43;;;;;;;;;;;;;;;;;;4218525;28;1130;-56
2022/03/24 12:16:04;;;;;;;;;;;;;;;;;;4217938;28;1163;-57
2022/03/24 12:18:24;;;;;;;;;;;;;;;;;;4219148;28;1449;-57
2022/03/24 12:20:45;;;;;;;;;;;;;;;;;;4220579;28;997;-57
2022/03/24 12:23:06;;;;;;;;;;;;;;;;;;4220211;28;1565;-56
2022/03/24 12:25:27;;;;;;;;;;;;;;;;;;4220978;28;969;-57
2022/03/24 12:27:48;;;;;;;;;;;;;;;;;;4219458;28;1988;-57
2022/03/24 12:30:08;;;;;;;;;;;;;;;;;;4220591;28;1706;-57
2022/03/24 12:32:29;;;;;;;;;;;;;;;;;;4220810;28;938;-57
2022/03/24 12:34:50;;;;;;;;;;;;;;;;;;4220583;28;1035;-57
2022/03/24 12:37:10;;;;;;;;;;;;;;;;;;4220454;28;1004;-57
2022/03/24 12:39:31;;;;;;;;;;;;;;;;;;4220622;28;1017;-58
2022/03/24 12:41:52;;;;;;;;;;;;;;;;;;4221003;28;848;-54
2022/03/24 12:44:13;;;;;;;;;;;;;;;;;;4230433;28;1276;-54
2022/03/24 12:46:33;;;;;;;;;;;;;;;;;;4237723;27;1293;-55
2022/03/24 12:48:54;;;;;;;;;;;;;;;;;;4231946;27;1914;-54
2022/03/24 12:51:15;;;;;;;;;;;;;;;;;;4219647;28;980;-54
2022/03/24 12:53:36;;;;;;;;;;;;;;;;;;4220437;28;1015;-55
2022/03/24 12:55:56;;;;;;;;;;;;;;;;;;4220733;28;1030;-54
2022/03/24 12:58:23;;;;;;;;;;;;;;;;;;4220071;28;1201;-54
2022/03/24 13:00:48;;;;;;;;;;;;;;;;;;4213693;28;1126;-54
2022/03/24 13:03:10;;;;;;;;;;;;;;;;;;4220150;28;852;-54
2022/03/24 13:05:33;;;;;;;;;;;;;;;;;;4219270;28;1227;-55
2022/03/24 13:07:55;;;;;;;;;;;;;;;;;;4219804;28;1989;-55
2022/03/24 13:10:19;;;;;;;;;;;;;;;;;;4220015;28;1195;-54
2022/03/24 13:12:47;;;;;;;;;;;;;;;;;;4219680;28;1105;-54
2022/03/24 13:15:20;;;;;;;;;;;;;;;;;;4220098;28;1187;-54
2022/03/24 13:17:59;;;;;;;;;;;;;;;;;;4218685;28;1477;-54
2022/03/24 13:20:20;;;;;;;;;;;;;;;;;;4200537;28;966;-54
2022/03/24 13:22:40;;;;;;;;;;;;;;;;;;4204648;28;1290;-54
2022/03/24 13:25:02;;;;;;;;;;;;;;;;;;4206643;28;1369;-54
2022/03/24 13:27:23;;;;;;;;;;;;;;;;;;4219293;28;1167;-54
2022/03/24 13:29:44;;;;;;;;;;;;;;;;;;4213844;28;1925;-53
2022/03/24 13:32:05;;;;;;;;;;;;;;;;;;4219437;28;1122;-53
2022/03/24 13:34:25;;;;;;;;;;;;;;;;;;4219182;28;1062;-54
2022/03/24 13:36:46;;;;;;;;;;;;;;;;;;4217740;28;1098;-54
2022/03/24 13:39:07;;;;;;;;;;;;;;;;;;4218940;28;1490;-54
2022/03/24 13:41:27;;;;;;;;;;;;;;;;;;4216316;28;1602;-54
2022/03/24 13:43:47;;;;;;;;;;;;;;;;;;4218166;28;1482;-51
2022/03/24 13:46:09;;;;;;;;;;;;;;;;;;4221269;28;1158;-52
2022/03/24 13:48:30;;;;;;;;;;;;;;;;;;4234800;27;1992;-52
2022/03/24 13:50:50;;;;;;;;;;;;;;;;;;4217833;28;1737;-51
2022/03/24 13:53:11;;;;;;;;;;;;;;;;;;4218119;28;1484;-51
2022/03/24 13:55:32;;;;;;;;;;;;;;;;;;4216852;28;1712;-52
2022/03/24 13:57:53;;;;;;;;;;;;;;;;;;4218675;28;1693;-52
2022/03/24 14:00:13;;;;;;;;;;;;;;;;;;4214782;28;2074;-51
2022/03/24 14:02:35;;;;;;;;;;;;;;;;;;4218899;28;1215;-51
2022/03/24 14:04:56;;;;;;;;;;;;;;;;;;4218201;28;1108;-52
2022/03/24 14:07:16;;;;;;;;;;;;;;;;;;4218227;28;1647;-52
2022/03/24 14:09:37;;;;;;;;;;;;;;;;;;4218148;28;1981;-52
2022/03/24 14:11:58;;;;;;;;;;;;;;;;;;4218278;28;1040;-52
2022/03/24 14:14:19;;;;;;;;;;;;;;;;;;4216803;28;1240;-52
2022/03/24 14:16:40;;;;;;;;;;;;;;;;;;4218610;28;826;-52
2022/03/24 14:19:00;;;;;;;;;;;;;;;;;;4219007;28;1095;-53
2022/03/24 14:21:21;;;;;;;;;;;;;;;;;;4218630;28;1281;-53
2022/03/24 14:23:42;;;;;;;;;;;;;;;;;;4218933;28;1091;-52
2022/03/24 14:26:03;;;;;;;;;;;;;;;;;;4218361;28;958;-53
2022/03/24 14:28:23;;;;;;;;;;;;;;;;;;4219381;28;1910;-52
2022/03/24 14:30:44;;;;;;;;;;;;;;;;;;4219416;28;1049;-52
2022/03/24 14:33:04;;;;;;;;;;;;;;;;;;4219631;28;1273;-52
2022/03/24 14:35:27;;;;;;;;;;;;;;;;;;4202952;28;1266;-52
2022/03/24 14:37:49;;;;;;;;;;;;;;;;;;4205717;28;874;-52
2022/03/24 14:40:09;;;;;;;;;;;;;;;;;;4205625;28;841;-52
2022/03/24 14:42:30;;;;;;;;;;;;;;;;;;4205735;28;877;-52
2022/03/24 14:44:50;;;;;;;;;;;;;;;;;;4205466;28;903;-52
2022/03/24 14:47:11;;;;;;;;;;;;;;;;;;4215161;28;1150;-52
2022/03/24 14:49:32;;;;;;;;;;;;;;;;;;4221821;28;1982;-52
2022/03/24 14:51:52;;;;;;;;;;;;;;;;;;4222204;28;942;-52
2022/03/24 14:54:13;;;;;;;;;;;;;;;;;;4222379;28;1251;-52
2022/03/24 14:56:34;;;;;;;;;;;;;;;;;;4205885;28;1112;-52
2022/03/24 14:58:56;;;;;;;;;;;;;;;;;;4205315;28;1183;-52
2022/03/24 15:01:17;;;;;;;;;;;;;;;;;;4205095;28;1006;-52
2022/03/24 15:03:38;;;;;;;;;;;;;;;;;;4208513;28;1303;-52
2022/03/24 15:05:58;;;;;;;;;;;;;;;;;;4222099;28;1086;-52
2022/03/24 15:08:19;;;;;;;;;;;;;;;;;;4221910;28;1084;-52
2022/03/24 15:10:39;;;;;;;;;;;;;;;;;;4222099;28;878;-52
2022/03/24 15:13:00;;;;;;;;;;;;;;;;;;4221632;28;1138;-52
2022/03/24 15:17:59;;;;;;;;;;;;;;;;;;4221666;28;975;-52
2022/03/24 15:20:20;;;;;;;;;;;;;;;;;;4205119;28;962;-53
2022/03/24 15:22:41;;;;;;;;;;;;;;;;;;4205063;28;1275;-52
2022/03/24 15:25:02;;;;;;;;;;;;;;;;;;4204997;28;881;-52
2022/03/24 15:27:23;;;;;;;;;;;;;;;;;;4205231;28;958;-52
2022/03/24 15:29:44;;;;;;;;;;;;;;;;;;4219566;28;2012;-52
2022/03/24 15:32:05;;;;;;;;;;;;;;;;;;4221424;28;1145;-52
2022/03/24 15:34:28;;;;;;;;;;;;;;;;;;4220871;28;1242;-52
2022/03/24 15:36:48;;;;;;;;;;;;;;;;;;4221126;28;1017;-51
2022/03/24 15:39:09;;;;;;;;;;;;;;;;;;4220872;28;1010;-52
2022/03/24 15:41:32;;;;;;;;;;;;;;;;;;4219190;28;1077;-53
2022/03/24 15:43:55;;;;;;;;;;;;;;;;;;4220024;28;837;-51
2022/03/24 15:46:15;;;;;;;;;;;;;;;;;;4219746;28;977;-52
2022/03/24 15:48:39;;;;;;;;;;;;;;;;;;4218447;28;1363;-52
2022/03/24 15:53:45;;;;;;;;;;;;;;;;;;4218971;28;1096;-52
2022/03/24 15:56:05;;;;;;;;;;;;;;;;;;4218684;28;1081;-52
2022/03/24 15:58:26;;;;;;;;;;;;;;;;;;4219119;28;1040;-52
2022/03/24 16:00:47;;;;;;;;;;;;;;;;;;4219180;28;1043;-52
2022/03/24 16:03:08;;;;;;;;;;;;;;;;;;4219962;28;947;-52
2022/03/24 16:05:33;;;;;;;;;;;;;;;;;;4202685;28;1128;-52
2022/03/24 16:07:54;;;;;;;;;;;;;;;;;;4203064;28;953;-51
2022/03/24 16:10:14;;;;;;;;;;;;;;;;;;4202619;28;1956;-52
2022/03/24 16:12:35;;;;;;;;;;;;;;;;;;4202861;28;1126;-52
2022/03/24 16:14:56;;;;;;;;;;;;;;;;;;4204204;28;1484;-51
2022/03/24 16:17:16;;;;;;;;;;;;;;;;;;4219299;28;1188;-52
2022/03/24 16:19:37;;;;;;;;;;;;;;;;;;4219389;28;1300;-51
2022/03/24 16:21:58;;;;;;;;;;;;;;;;;;4218797;28;1383;-52
2022/03/24 16:24:19;;;;;;;;;;;;;;;;;;4219452;28;1152;-52
2022/03/24 16:26:40;;;;;;;;;;;;;;;;;;4219415;28;990;-52
2022/03/24 16:29:00;;;;;;;;;;;;;;;;;;4218819;28;1909;-52
2022/03/24 16:31:21;;;;;;;;;;;;;;;;;;4219475;28;948;-52
2022/03/24 16:33:42;;;;;;;;;;;;;;;;;;4219119;28;1102;-52
2022/03/24 16:36:02;;;;;;;;;;;;;;;;;;4219451;28;1011;-53